Time;durP1;ratioP1;P1;durP2;ratioP2;P2;SDS_P1;SDS_P2;PMS_P1;PMS_P2;Temp;Humidity;BMP_temperature;BMP_pressure;BME280_temperature;BME280_humidity;BME280_pressure;Samples;Min_cycle;Max_cycle;Signal;HPM_P1;HPM_P2
2021/01/28 00:00:37;;;;;;;8.15;5.93;;;0.70;78.80;;;-0.21;63.76;94382.63;5052190;28;20215;-83
2021/01/28 00:03:06;;;;;;;7.03;5.53;;;0.70;78.80;;;-0.14;63.75;94387.22;5035463;28;20188;-84
2021/01/28 00:05:37;;;;;;;7.47;5.70;;;0.80;78.80;;;-0.14;63.96;94377.72;5036184;28;20220;-83
2021/01/28 00:08:05;;;;;;;9.82;6.20;;;0.80;78.80;;;-0.08;64.33;94389.25;5035958;28;20200;-83
2021/01/28 00:10:33;;;;;;;6.80;5.60;;;0.90;78.90;;;-0.06;63.83;94377.84;5051934;28;20231;-84
2021/01/28 00:13:02;;;;;;;6.97;4.82;;;1.00;78.90;;;0.03;63.71;94372.81;5035104;28;20220;-83
2021/01/28 00:15:32;;;;;;;7.03;5.40;;;1.00;78.90;;;0.08;63.82;94376.56;5051427;28;20704;-83
2021/01/28 00:18:00;;;;;;;7.50;5.00;;;1.00;78.80;;;0.10;63.75;94372.09;5051543;28;20199;-83
2021/01/28 00:20:39;;;;;;;6.38;4.80;;;1.00;78.80;;;0.09;63.66;94373.03;5035138;28;20682;-84
2021/01/28 00:23:07;;;;;;;6.68;5.28;;;1.10;78.70;;;0.17;63.63;94382.66;5035610;28;20199;-83
2021/01/28 00:25:35;;;;;;;7.15;5.57;;;1.10;78.70;;;0.20;63.70;94381.56;5035319;28;20227;-84
2021/01/28 00:28:06;;;;;;;7.20;5.28;;;1.20;78.70;;;0.23;63.83;94378.69;5035170;28;20204;-83
2021/01/28 00:30:41;;;;;;;7.05;5.35;;;1.20;78.80;;;0.25;63.64;94376.81;5035350;28;20222;-83
2021/01/28 00:33:12;;;;;;;8.07;5.57;;;1.30;79.60;;;0.27;63.76;94375.69;5051874;28;20717;-84
2021/01/28 00:35:43;;;;;;;6.47;5.22;;;1.30;78.70;;;0.31;63.57;94376.22;5051825;28;20227;-84
2021/01/28 00:38:20;;;;;;;7.43;5.80;;;1.30;78.70;;;0.32;63.39;94368.34;5003399;28;20188;-84
2021/01/28 00:40:47;;;;;;;7.32;5.53;;;1.30;78.60;;;0.34;63.71;94378.50;5051965;28;20223;-84
2021/01/28 00:43:15;;;;;;;7.50;5.70;;;1.30;78.50;;;0.33;64.00;94371.75;5017953;28;20211;-83
2021/01/28 00:45:42;;;;;;;9.43;6.50;;;1.30;78.60;;;0.37;63.62;94380.03;5035109;28;20216;-83
2021/01/28 00:48:11;;;;;;;7.00;5.72;;;1.40;78.70;;;0.38;63.51;94381.63;5035806;28;20207;-83
2021/01/28 00:50:40;;;;;;;10.73;6.88;;;1.40;78.60;;;0.38;63.94;94376.47;5035149;28;20224;-83
2021/01/28 00:53:10;;;;;;;9.95;6.82;;;1.40;78.70;;;0.38;64.13;94389.34;5064944;28;20311;-84
2021/01/28 00:55:41;;;;;;;10.65;7.80;;;1.60;78.90;;;0.39;64.22;94375.50;5032213;28;20225;-83
2021/01/28 00:58:20;;;;;;;10.10;7.18;;;1.50;78.90;;;0.32;64.31;94372.69;5023729;28;20204;-84
2021/01/28 01:00:48;;;;;;;10.90;7.60;;;1.40;78.90;;;0.39;64.34;94375.50;5051175;28;20293;-83
2021/01/28 01:03:20;;;;;;;10.25;7.80;;;1.50;79.00;;;0.38;64.62;94377.28;5035097;28;20203;-84
2021/01/28 01:05:51;;;;;;;10.50;7.45;;;1.50;79.00;;;0.39;64.94;94378.91;5035225;28;20310;-84
2021/01/28 01:08:28;;;;;;;8.52;6.82;;;1.50;79.20;;;0.41;64.78;94365.88;5035190;28;20547;-83
2021/01/28 01:11:11;;;;;;;10.60;7.38;;;1.50;79.10;;;0.42;64.72;94364.91;5052822;28;20236;-83
2021/01/28 01:13:41;;;;;;;8.60;6.70;;;1.50;79.10;;;0.50;64.14;94374.50;5035865;28;20324;-83
2021/01/28 01:16:17;;;;;;;9.50;6.65;;;1.50;79.10;;;0.49;64.60;94365.97;5035271;28;20219;-83
2021/01/28 01:18:49;;;;;;;10.05;7.28;;;1.50;79.10;;;0.52;64.60;94346.81;5037372;28;20294;-84
2021/01/28 01:21:19;;;;;;;10.30;7.38;;;1.60;79.20;;;0.55;64.43;94349.91;5035007;28;20235;-84
2021/01/28 01:23:59;;;;;;;7.25;5.90;;;1.60;79.20;;;0.57;64.31;94342.03;5036519;28;20206;-84
2021/01/28 01:26:26;;;;;;;8.88;6.38;;;1.60;79.10;;;0.53;64.43;94332.97;5034863;28;20252;-83
2021/01/28 01:28:54;;;;;;;8.02;6.43;;;1.60;79.20;;;0.64;64.23;94335.31;5034868;28;20231;-83
2021/01/28 01:31:41;;;;;;;8.60;6.20;;;1.60;79.10;;;0.67;64.22;94336.81;5050432;28;20235;-83
2021/01/28 01:34:08;;;;;;;8.73;6.40;;;1.70;79.20;;;0.67;64.43;94322.13;5055257;28;20220;-83
2021/01/28 01:36:37;;;;;;;9.57;6.72;;;1.70;79.20;;;0.72;64.47;94334.59;5055492;28;20711;-83
2021/01/28 01:39:04;;;;;;;9.93;7.30;;;1.70;79.30;;;0.74;64.43;94327.53;5038555;28;20195;-83
2021/01/28 01:41:42;;;;;;;9.55;7.22;;;1.70;79.20;;;0.72;64.40;94314.78;5056360;28;20258;-83
2021/01/28 01:44:15;;;;;;;11.35;7.43;;;1.80;79.40;;;0.75;64.58;94318.81;5054629;28;20662;-84
2021/01/28 01:46:54;;;;;;;7.88;6.45;;;1.70;79.30;;;0.79;64.89;94320.16;5055249;28;20224;-84
2021/01/28 01:49:25;;;;;;;9.05;6.53;;;1.80;79.40;;;0.82;64.60;94335.34;5055026;28;20204;-84
2021/01/28 01:51:56;;;;;;;9.43;7.07;;;1.80;79.40;;;0.85;64.45;94323.94;5054945;28;20280;-83
2021/01/28 01:54:45;;;;;;;9.77;7.30;;;1.80;79.60;;;0.87;64.43;94333.13;5040291;28;20318;-83
2021/01/28 01:57:29;;;;;;;7.60;6.47;;;1.90;79.40;;;0.84;64.48;94325.69;5055049;28;20177;-83
2021/01/28 02:00:10;;;;;;;9.02;7.13;;;1.80;80.10;;;0.87;64.38;94316.84;5039339;28;20693;-84
2021/01/28 02:03:05;;;;;;;8.77;6.53;;;1.90;79.40;;;0.92;64.36;94312.06;5054480;28;20207;-82
2021/01/28 02:06:04;;;;;;;7.93;6.13;;;1.90;79.40;;;0.90;64.07;94317.34;5054678;28;20248;-83
2021/01/28 02:09:03;;;;;;;8.63;6.28;;;1.90;79.30;;;0.95;64.31;94315.16;5054686;28;20192;-83
2021/01/28 02:11:49;;;;;;;8.23;6.47;;;2.00;79.40;;;0.95;64.60;94307.41;5053614;28;20564;-83
2021/01/28 02:14:33;;;;;;;12.52;7.60;;;2.00;79.30;;;0.95;64.24;94301.41;5056885;28;20211;-83
2021/01/28 02:17:15;;;;;;;9.73;6.65;;;1.90;79.30;;;0.98;64.40;94300.31;5055449;28;20295;-83
2021/01/28 02:20:27;;;;;;;8.27;6.72;;;2.00;79.30;;;0.95;64.20;94304.81;5040264;28;20743;-83
2021/01/28 02:23:23;;;;;;;7.57;5.90;;;2.00;79.20;;;0.98;64.17;94302.88;5033494;28;20671;-83
2021/01/28 02:25:53;;;;;;;10.40;6.95;;;2.00;79.10;;;0.95;64.07;94309.16;5018362;28;20216;-83
2021/01/28 02:28:23;;;;;;;10.35;6.68;;;2.00;79.20;;;0.94;64.00;94307.53;5027162;28;20221;-83
2021/01/28 02:30:56;;;;;;;8.13;5.90;;;2.00;79.00;;;0.91;64.31;94300.09;5031207;28;20587;-83
2021/01/28 02:33:44;;;;;;;8.05;6.53;;;2.00;79.10;;;0.91;64.13;94300.91;5054156;28;20305;-83
2021/01/28 02:36:38;;;;;;;8.60;6.43;;;2.00;79.20;;;0.92;64.27;94294.78;5040670;28;20224;-83
2021/01/28 02:39:29;;;;;;;7.45;5.80;;;2.00;79.00;;;0.88;64.05;94287.47;5053455;28;20200;-83
2021/01/28 02:42:22;;;;;;;7.40;5.80;;;2.00;79.00;;;0.92;64.03;94297.34;5035412;28;20680;-83
2021/01/28 02:44:56;;;;;;;8.30;5.78;;;1.90;79.20;;;0.95;64.36;94296.25;5007407;28;20228;-83
2021/01/28 02:47:52;;;;;;;6.53;5.45;;;2.00;79.00;;;0.91;64.18;94282.81;5032519;28;20204;-83
2021/01/28 02:50:38;;;;;;;8.35;6.43;;;1.90;79.10;;;0.93;64.12;94277.53;5039516;28;20405;-83
2021/01/28 02:53:06;;;;;;;7.18;5.90;;;2.00;79.10;;;0.92;63.99;94279.28;5053521;28;20240;-83
2021/01/28 02:55:38;;;;;;;8.23;6.57;;;1.90;79.00;;;0.97;64.04;94284.00;5054110;28;20670;-83
2021/01/28 02:58:05;;;;;;;9.18;5.80;;;1.90;79.00;;;0.97;63.97;94286.59;5033680;28;20216;-84
2021/01/28 03:00:51;;;;;;;9.23;6.13;;;2.00;79.10;;;0.99;63.85;94276.09;5072075;28;20299;-83
2021/01/28 03:03:19;;;;;;;9.43;6.72;;;2.00;79.20;;;0.98;64.07;94271.91;5037018;28;20200;-83
2021/01/28 03:05:51;;;;;;;7.95;6.65;;;2.00;79.10;;;0.96;63.96;94261.72;5053657;28;20235;-84
2021/01/28 03:08:21;;;;;;;9.15;7.13;;;2.00;79.10;;;0.93;64.01;94262.84;5053584;28;20253;-83
2021/01/28 03:11:05;;;;;;;9.20;6.55;;;2.00;79.00;;;0.91;63.93;94262.16;5055917;28;20701;-82
2021/01/28 03:13:32;;;;;;;8.25;6.00;;;2.00;79.00;;;0.89;64.05;94251.19;5019825;28;20235;-84
2021/01/28 03:16:09;;;;;;;8.95;6.70;;;2.00;79.00;;;0.84;63.80;94250.81;5037531;28;20743;-83
2021/01/28 03:18:39;;;;;;;9.35;6.93;;;2.00;78.90;;;0.83;63.90;94262.13;5038210;28;20658;-83
2021/01/28 03:21:07;;;;;;;12.57;7.78;;;2.00;78.90;;;0.80;63.94;94259.81;5069093;28;20270;-84
2021/01/28 03:23:56;;;;;;;9.95;7.43;;;1.90;78.90;;;0.75;64.01;94252.50;5053197;28;20523;-83
2021/01/28 03:26:36;;;;;;;9.45;7.53;;;1.90;78.90;;;0.71;64.10;94246.03;5040421;28;20250;-83
2021/01/28 03:29:10;;;;;;;8.93;6.70;;;1.90;78.90;;;0.70;63.69;94243.63;5052998;28;20203;-83
2021/01/28 03:31:41;;;;;;;9.10;7.35;;;1.80;78.80;;;0.66;63.88;94247.44;5036354;28;20693;-84
2021/01/28 03:34:14;;;;;;;8.13;6.75;;;1.80;78.80;;;0.60;63.77;94249.66;5036335;28;20335;-84
2021/01/28 03:36:41;;;;;;;9.90;7.07;;;1.80;79.60;;;0.55;63.97;94248.44;5053098;28;20282;-83
2021/01/28 03:39:14;;;;;;;10.20;7.32;;;1.80;78.80;;;0.50;64.13;94251.50;5037257;28;20287;-84
2021/01/28 03:41:42;;;;;;;10.60;6.72;;;1.80;78.80;;;0.43;64.12;94248.66;5036696;28;20223;-83
2021/01/28 03:44:10;;;;;;;10.50;7.38;;;1.70;78.70;;;0.45;64.03;94251.09;5052815;28;20685;-83
2021/01/28 03:46:39;;;;;;;9.25;7.43;;;1.60;78.70;;;0.39;63.89;94246.53;5052854;28;20239;-84
2021/01/28 03:49:06;;;;;;;8.40;7.13;;;1.60;78.70;;;0.35;64.64;94248.59;5036056;28;20254;-85
2021/01/28 03:52:09;;;;;;;9.35;7.03;;;1.60;78.70;;;0.36;64.63;94244.25;5045920;28;20200;-84
2021/01/28 03:54:37;;;;;;;10.35;7.93;;;1.60;78.90;;;0.34;64.87;94238.41;5052025;28;20204;-83
2021/01/28 03:57:13;;;;;;;12.10;8.10;;;1.60;79.10;;;0.47;64.87;94238.88;5053471;28;20579;-83
2021/01/28 03:59:52;;;;;;;11.35;8.45;;;1.60;79.30;;;0.52;65.10;94241.03;5053282;28;20251;-83
2021/01/28 04:02:39;;;;;;;11.80;8.32;;;1.60;79.60;;;0.61;65.45;94245.28;5062855;28;20567;-83
2021/01/28 04:05:27;;;;;;;11.65;8.80;;;1.60;79.80;;;0.70;65.49;94249.56;5046781;28;20632;-83
2021/01/28 04:08:12;;;;;;;11.13;8.05;;;1.70;79.90;;;0.75;65.65;94239.59;5035180;28;20265;-83
2021/01/28 04:10:59;;;;;;;11.73;7.53;;;1.80;80.10;;;0.83;65.19;94238.88;5049193;28;20334;-82
2021/01/28 04:13:26;;;;;;;9.95;6.93;;;1.80;80.00;;;0.84;65.10;94234.53;5049660;28;20277;-83
2021/01/28 04:15:54;;;;;;;9.63;6.97;;;1.80;80.00;;;0.96;64.90;94243.66;5050351;28;20747;-83
2021/01/28 04:18:26;;;;;;;9.13;6.25;;;1.90;80.00;;;1.00;64.84;94232.09;5043175;28;20204;-84
2021/01/28 04:21:25;;;;;;;10.98;7.22;;;1.90;79.90;;;1.01;64.98;94233.69;5036247;28;20239;-83
2021/01/28 04:23:57;;;;;;;10.35;7.72;;;2.00;79.90;;;1.04;64.82;94228.22;5047815;28;20613;-83
2021/01/28 04:26:40;;;;;;;8.32;6.25;;;2.00;79.90;;;1.08;64.91;94226.97;5029461;28;20211;-83
2021/01/28 04:29:08;;;;;;;8.13;6.03;;;2.00;79.90;;;1.12;64.58;94230.06;5046225;28;20242;-83
2021/01/28 04:32:03;;;;;;;9.13;6.70;;;2.10;79.90;;;1.14;65.25;94229.94;5047617;28;20193;-83
2021/01/28 04:34:54;;;;;;;8.57;6.47;;;2.10;79.90;;;1.17;64.83;94225.25;5035800;28;20231;-82
2021/01/28 04:37:22;;;;;;;7.82;5.95;;;2.10;79.90;;;1.22;64.95;94224.78;5049430;28;20188;-82
2021/01/28 04:39:57;;;;;;;8.95;6.55;;;2.10;79.80;;;1.24;65.19;94212.53;5018523;28;20640;-82
2021/01/28 04:42:42;;;;;;;8.10;6.18;;;2.20;80.00;;;1.28;64.98;94206.09;5032848;28;20265;-83
2021/01/28 04:45:20;;;;;;;7.97;6.20;;;2.20;80.00;;;1.30;64.94;94201.59;5058360;28;20244;-83
2021/01/28 04:47:58;;;;;;;8.18;6.50;;;2.30;80.00;;;1.34;65.06;94200.31;5013619;28;20206;-82
2021/01/28 04:50:44;;;;;;;8.27;6.38;;;2.30;80.10;;;1.38;65.04;94191.31;5065605;28;20235;-83
2021/01/28 04:53:29;;;;;;;7.50;5.70;;;2.30;80.00;;;1.42;64.75;94197.00;5052796;28;20666;-83
2021/01/28 04:56:17;;;;;;;7.90;6.28;;;2.40;80.10;;;1.37;65.76;94187.13;5033971;28;20212;-83
2021/01/28 04:59:42;;;;;;;8.32;6.03;;;2.40;80.20;;;1.45;65.20;94191.50;5034342;28;20214;-82
2021/01/28 05:02:18;;;;;;;8.57;6.43;;;2.40;80.10;;;1.51;65.37;94187.50;5054431;28;20204;-84
2021/01/28 05:05:14;;;;;;;9.57;6.53;;;2.50;80.10;;;1.51;65.37;94182.34;5038424;28;20215;-82
2021/01/28 05:08:18;;;;;;;8.25;6.10;;;2.50;80.00;;;1.56;65.57;94193.84;5040007;28;20220;-83
2021/01/28 05:11:26;;;;;;;8.20;6.15;;;2.50;80.00;;;1.54;65.48;94174.28;5052343;28;20220;-82
2021/01/28 05:14:21;;;;;;;11.30;8.13;;;2.60;80.10;;;1.59;65.53;94172.03;5052232;28;20218;-83
2021/01/28 05:17:07;;;;;;;10.40;7.30;;;2.60;80.20;;;1.60;65.71;94169.28;5052459;28;20307;-83
2021/01/28 05:19:53;;;;;;;9.70;6.75;;;2.80;80.40;;;1.65;65.57;94176.59;5039649;28;20219;-83
2021/01/28 05:22:44;;;;;;;9.30;6.97;;;2.60;80.20;;;1.64;65.38;94159.47;5024461;28;20295;-82
2021/01/28 05:25:32;;;;;;;9.40;6.82;;;2.60;80.20;;;1.67;65.01;94160.91;5053390;28;20269;-83
2021/01/28 05:28:42;;;;;;;10.48;7.55;;;2.70;80.20;;;1.74;65.19;94165.31;5039069;28;20258;-82
2021/01/28 05:31:32;;;;;;;8.57;5.82;;;2.70;80.10;;;1.78;65.15;94155.47;5045340;28;20228;-84
2021/01/28 05:34:31;;;;;;;8.50;6.00;;;2.70;80.10;;;1.78;64.88;94150.28;5035451;28;20220;-83
2021/01/28 05:37:29;;;;;;;6.15;5.30;;;2.70;80.10;;;1.76;64.87;94144.47;5057431;28;20211;-82
2021/01/28 05:40:20;;;;;;;6.85;5.28;;;2.70;80.00;;;1.83;64.93;94145.47;5055342;28;20216;-82
2021/01/28 05:43:43;;;;;;;6.15;4.85;;;2.80;80.00;;;1.86;64.72;94163.25;5054660;28;20798;-83
2021/01/28 05:46:29;;;;;;;7.28;5.07;;;2.80;80.00;;;1.86;64.63;94160.66;5055764;28;20567;-83
2021/01/28 05:49:40;;;;;;;7.32;5.43;;;2.90;80.10;;;1.84;64.91;94154.81;4983123;28;20206;-83
2021/01/28 05:52:30;;;;;;;7.07;5.70;;;2.80;79.90;;;1.88;64.65;94156.16;5019471;28;20279;-84
2021/01/28 05:55:18;;;;;;;7.18;5.70;;;2.80;79.90;;;1.90;64.99;94150.81;5053623;28;20219;-83
2021/01/28 05:58:06;;;;;;;7.32;5.40;;;2.80;79.90;;;1.90;64.94;94153.41;5031987;28;20219;-83
2021/01/28 06:00:54;;;;;;;7.07;5.50;;;2.80;79.80;;;1.87;64.87;94145.97;5071197;28;20278;-82
2021/01/28 06:03:58;;;;;;;7.43;5.85;;;2.90;79.90;;;1.88;64.82;94147.56;5037918;28;20192;-83
2021/01/28 06:06:55;;;;;;;6.63;5.50;;;2.90;79.90;;;1.88;64.62;94145.81;5068768;28;20246;-83
2021/01/28 06:09:59;;;;;;;6.97;5.18;;;2.90;79.90;;;1.90;64.64;94148.22;5054541;28;20242;-83
2021/01/28 06:12:44;;;;;;;7.55;5.78;;;2.90;79.90;;;1.92;64.87;94152.28;5069308;28;20200;-83
2021/01/28 06:16:11;;;;;;;8.10;5.95;;;2.90;79.90;;;1.94;64.74;94153.91;5036411;28;20227;-82
2021/01/28 06:19:17;;;;;;;7.63;6.07;;;2.90;79.90;;;1.94;64.76;94148.72;4993649;28;20577;-81
2021/01/28 06:21:56;;;;;;;7.85;5.72;;;2.90;79.90;;;1.93;64.94;94153.09;5052400;28;20319;-81
2021/01/28 06:24:47;;;;;;;7.45;5.82;;;2.90;79.90;;;1.96;64.69;94144.22;5051712;28;20235;-83
2021/01/28 06:28:06;;;;;;;6.25;5.10;;;2.90;79.90;;;1.97;64.83;94144.06;5059704;28;20208;-82
2021/01/28 06:31:07;;;;;;;7.47;5.72;;;2.90;80.00;;;1.98;64.84;94131.91;5047735;28;20425;-82
2021/01/28 06:34:41;;;;;;;7.45;5.55;;;2.90;79.90;;;2.00;64.86;94132.56;5061748;28;20220;-83
2021/01/28 06:37:31;;;;;;;7.00;5.20;;;2.90;79.80;;;1.99;64.71;94133.53;5034833;28;20208;-84
2021/01/28 06:40:44;;;;;;;8.68;6.22;;;3.00;79.90;;;1.99;64.50;94141.31;5062329;28;20314;-83
2021/01/28 06:44:00;;;;;;;7.78;5.68;;;2.90;79.80;;;1.95;64.68;94127.06;5029789;28;20687;-81
2021/01/28 06:47:20;;;;;;;7.55;5.80;;;3.00;79.90;;;1.99;64.64;94121.44;5050313;28;20199;-81
2021/01/28 06:50:51;;;;;;;7.72;5.78;;;3.00;79.90;;;2.02;64.93;94126.28;5039023;28;20274;-82
2021/01/28 06:53:45;;;;;;;7.57;5.72;;;3.00;79.90;;;2.06;65.09;94126.78;5057396;28;20232;-82
2021/01/28 06:56:38;;;;;;;6.53;5.20;;;3.00;80.00;;;2.12;64.99;94130.50;5047329;28;20594;-83
2021/01/28 07:00:34;;;;;;;8.27;5.68;;;3.00;80.10;;;2.14;65.04;94131.97;5023770;28;20208;-83
2021/01/28 07:03:25;;;;;;;7.25;5.60;;;3.00;80.10;;;2.19;64.61;94113.38;5067244;28;20519;-83
2021/01/28 07:06:48;;;;;;;6.90;5.75;;;3.10;80.20;;;2.26;64.86;94116.13;5050709;28;20282;-82
2021/01/28 07:09:43;;;;;;;9.00;6.57;;;3.10;80.20;;;2.22;65.08;94095.75;5036650;28;20204;-82
2021/01/28 07:12:19;;;;;;;8.98;6.78;;;3.20;80.30;;;2.38;64.76;94112.25;5051410;28;20206;-83
2021/01/28 07:15:10;;;;;;;8.60;6.53;;;3.20;80.30;;;2.44;65.10;94110.81;5066631;28;20704;-82
2021/01/28 07:18:30;;;;;;;6.30;4.88;;;3.30;80.40;;;2.46;64.94;94094.13;5052791;28;20288;-83
2021/01/28 07:21:03;;;;;;;6.20;5.07;;;3.40;80.40;;;2.56;64.65;94104.31;5048956;28;20776;-83
2021/01/28 07:23:39;;;;;;;6.65;5.13;;;3.30;80.30;;;2.61;64.77;94107.22;5018618;28;20534;-83
2021/01/28 07:26:16;;;;;;;6.45;4.95;;;3.40;80.40;;;2.67;64.61;94104.03;5050603;28;20310;-83
2021/01/28 07:28:46;;;;;;;6.10;5.35;;;3.50;80.50;;;2.71;64.86;94107.88;5031008;28;20246;-82
2021/01/28 07:31:49;;;;;;;6.15;4.60;;;3.50;80.50;;;2.77;64.79;94103.03;5031264;28;20224;-83
2021/01/28 07:34:24;;;;;;;7.82;5.13;;;3.60;80.40;;;2.84;65.01;94103.97;5049007;28;20254;-83
2021/01/28 07:37:28;;;;;;;8.68;5.93;;;3.60;80.50;;;2.91;64.81;94104.16;5051279;28;20202;-83
2021/01/28 07:41:09;;;;;;;8.25;5.63;;;3.70;80.40;;;2.96;64.88;94101.88;5049568;28;20235;-82
2021/01/28 07:44:34;;;;;;;7.25;5.47;;;3.70;80.30;;;3.01;64.61;94097.78;5046913;28;20204;-82
2021/01/28 07:47:29;;;;;;;7.10;5.43;;;3.80;80.30;;;3.09;64.75;94090.97;4951573;28;20207;-83
2021/01/28 07:50:21;;;;;;;5.63;4.70;;;3.80;80.40;;;3.16;64.68;94091.94;5043038;28;20215;-83
2021/01/28 07:52:55;;;;;;;6.55;5.35;;;3.90;80.40;;;3.22;64.78;94091.25;5065484;28;20315;-82
2021/01/28 07:55:36;;;;;;;5.53;4.63;;;3.90;80.40;;;3.28;64.65;94084.63;5031235;28;20228;-82
2021/01/28 07:58:06;;;;;;;6.00;4.78;;;4.00;80.40;;;3.36;65.03;94085.38;5043753;28;20202;-83
2021/01/28 08:00:39;;;;;;;6.78;5.15;;;4.00;80.50;;;3.41;64.64;94077.13;5030443;28;20237;-82
2021/01/28 08:03:22;;;;;;;7.00;4.57;;;4.10;80.50;;;3.44;64.70;94074.19;5045900;28;20282;-82
2021/01/28 08:05:54;;;;;;;6.47;4.82;;;4.10;80.30;;;3.49;64.47;94073.66;5046164;28;20219;-82
2021/01/28 08:08:21;;;;;;;5.70;4.40;;;4.20;80.50;;;3.61;64.63;94080.09;5061091;28;20215;-83
2021/01/28 08:10:51;;;;;;;6.70;4.75;;;4.30;80.40;;;3.64;64.85;94082.34;5031797;28;20222;-82
2021/01/28 08:13:26;;;;;;;4.97;3.80;;;4.30;80.40;;;3.63;64.54;94066.97;5029096;28;20224;-82
2021/01/28 08:16:09;;;;;;;5.53;4.60;;;4.40;80.40;;;3.67;64.70;94070.84;5058695;28;20226;-82
2021/01/28 08:18:43;;;;;;;5.03;3.80;;;4.40;80.40;;;3.75;64.66;94070.81;5035125;28;20212;-82
2021/01/28 08:21:22;;;;;;;4.88;3.97;;;4.50;80.50;;;3.78;64.74;94072.25;5050465;28;20223;-82
2021/01/28 08:23:50;;;;;;;5.25;4.03;;;4.50;80.50;;;3.87;64.60;94065.22;5016905;28;20295;-81
2021/01/28 08:26:34;;;;;;;4.10;3.63;;;4.50;80.50;;;3.92;64.49;94068.09;5032039;28;20220;-81
2021/01/28 08:29:18;;;;;;;5.00;3.60;;;4.60;80.60;;;4.00;64.64;94061.09;5031283;28;20200;-82
2021/01/28 08:31:52;;;;;;;4.22;3.40;;;4.60;80.60;;;4.10;64.42;94052.25;5072216;28;20191;-83
2021/01/28 08:34:30;;;;;;;3.97;3.40;;;4.70;80.70;;;4.19;64.64;94048.63;5024221;28;20220;-82
2021/01/28 08:37:02;;;;;;;4.68;3.40;;;4.80;80.70;;;4.28;64.63;94050.16;5057655;28;20192;-81
2021/01/28 08:39:33;;;;;;;5.70;3.88;;;4.80;80.80;;;4.35;64.62;94055.50;5027690;28;20196;-82
2021/01/28 08:42:13;;;;;;;4.20;3.72;;;4.90;80.80;;;4.41;64.58;94041.81;5065497;28;21821;-82
2021/01/28 08:44:45;;;;;;;4.65;3.60;;;5.00;80.80;;;4.51;64.65;94046.75;5054195;28;20302;-82
2021/01/28 08:47:16;;;;;;;3.95;3.33;;;5.10;80.90;;;4.61;64.92;94036.13;5034831;28;20663;-82
2021/01/28 08:49:47;;;;;;;5.47;3.60;;;5.20;81.00;;;4.69;64.75;94017.88;5034400;28;20629;-82
2021/01/28 08:52:17;;;;;;;5.60;3.20;;;5.30;81.00;;;4.73;64.73;94007.94;5032169;28;20199;-81
2021/01/28 08:54:47;;;;;;;4.05;3.22;;;5.30;81.00;;;4.65;64.55;93991.44;5049130;28;20330;-82
2021/01/28 08:57:18;;;;;;;3.92;3.15;;;5.50;80.80;;;4.90;64.28;94019.75;5032044;28;20216;-82
2021/01/28 08:59:50;;;;;;;3.53;2.85;;;5.50;80.80;;;4.97;64.88;93997.25;5048565;28;20224;-82
2021/01/28 09:02:24;;;;;;;3.88;3.10;;;5.50;81.00;;;5.09;64.55;93995.03;5029749;28;20658;-82
2021/01/28 09:05:22;;;;;;;4.00;3.17;;;5.70;81.10;;;5.26;64.39;94000.00;5040865;28;20220;-83
2021/01/28 09:08:00;;;;;;;4.05;3.30;;;5.70;80.80;;;5.33;64.19;93989.72;5047099;28;20216;-83
2021/01/28 09:10:40;;;;;;;4.05;3.38;;;5.80;80.70;;;5.33;63.99;93984.50;5050201;28;20223;-84
2021/01/28 09:13:16;;;;;;;3.88;2.88;;;5.90;80.60;;;5.43;64.20;93993.63;5033340;28;20577;-83
2021/01/28 09:15:45;;;;;;;4.13;3.30;;;6.00;80.70;;;5.38;64.22;93976.97;5067254;28;20223;-84
2021/01/28 09:18:30;;;;;;;3.70;2.90;;;6.10;80.80;;;5.50;63.95;93985.09;5049713;28;20196;-84
2021/01/28 09:21:16;;;;;;;3.58;3.13;;;6.10;80.50;;;5.56;64.19;93992.16;5050616;28;20215;-84
2021/01/28 09:24:25;;;;;;;3.63;2.88;;;6.20;80.50;;;5.57;64.33;93997.19;5050662;28;20208;-85
2021/01/28 09:27:15;;;;;;;3.63;2.67;;;6.20;80.40;;;5.64;63.94;93992.06;5038782;28;20196;-85
2021/01/28 09:29:44;;;;;;;2.75;2.47;;;6.30;80.30;;;5.69;64.62;93994.09;5039789;28;20675;-85
2021/01/28 09:32:32;;;;;;;3.00;2.58;;;6.40;80.70;;;5.68;63.98;93985.50;5051716;28;20287;-86
2021/01/28 09:35:22;;;;;;;3.55;2.10;;;6.50;80.20;;;5.73;63.75;93984.94;5034814;28;20232;-85
2021/01/28 09:38:14;;;;;;;2.25;2.08;;;6.40;80.10;;;5.72;63.87;93981.50;5027881;28;20229;-85
2021/01/28 09:40:46;;;;;;;2.58;2.30;;;6.50;80.00;;;5.77;64.00;93983.56;5051046;28;20212;-84
2021/01/28 09:43:32;;;;;;;2.60;2.40;;;6.50;80.10;;;5.81;63.73;93990.03;5048584;28;20203;-82
2021/01/28 09:46:14;;;;;;;2.38;2.13;;;6.50;80.10;;;5.83;63.83;93995.84;5044113;28;20312;-81
2021/01/28 09:48:43;;;;;;;2.60;2.35;;;6.50;80.00;;;5.89;64.07;93994.31;5042763;28;20800;-81
2021/01/28 09:51:14;;;;;;;2.70;2.45;;;6.60;80.20;;;5.93;64.05;93993.75;5066875;28;20652;-82
2021/01/28 09:54:23;;;;;;;3.83;2.20;;;6.60;80.20;;;5.97;63.97;93988.16;5052133;28;20579;-81
2021/01/28 09:56:51;;;;;;;3.50;2.67;;;6.60;79.80;;;6.03;63.98;93977.03;5059933;28;20617;-82
2021/01/28 09:59:18;;;;;;;2.80;2.40;;;6.70;80.30;;;6.08;63.91;93967.69;5051424;28;20192;-81
2021/01/28 10:01:46;;;;;;;2.47;2.22;;;6.70;80.30;;;6.21;63.84;93961.78;5044413;28;20444;-82
2021/01/28 10:04:14;;;;;;;2.60;2.40;;;6.80;80.40;;;6.31;63.80;93958.84;5040621;28;20265;-81
2021/01/28 10:06:41;;;;;;;3.10;2.35;;;6.80;81.30;;;6.40;63.62;93952.50;5052392;28;20204;-81
2021/01/28 10:09:09;;;;;;;2.38;2.17;;;6.90;80.50;;;6.49;63.31;93963.56;5051910;28;20204;-82
2021/01/28 10:11:37;;;;;;;2.20;1.90;;;7.00;80.30;;;6.50;63.28;93949.56;5066171;28;20220;-81
2021/01/28 10:14:04;;;;;;;2.28;2.00;;;7.10;80.20;;;6.59;63.39;93949.41;5053493;28;20216;-82
2021/01/28 10:16:32;;;;;;;3.08;2.70;;;7.10;80.10;;;6.60;63.14;93938.78;5052528;28;20277;-82
2021/01/28 10:18:59;;;;;;;2.55;2.35;;;7.10;80.10;;;6.72;63.43;93945.06;5040389;28;20184;-82
2021/01/28 10:21:27;;;;;;;5.45;2.92;;;7.20;80.20;;;6.79;63.11;93933.91;5051364;28;20262;-81
2021/01/28 10:23:53;;;;;;;4.20;2.80;;;7.30;80.20;;;6.78;63.33;93909.63;5036592;28;20303;-82
2021/01/28 10:26:20;;;;;;;2.00;1.77;;;7.30;80.10;;;6.96;63.39;93923.97;5033922;28;20216;-82
2021/01/28 10:28:48;;;;;;;1.73;1.52;;;7.50;80.20;;;6.99;63.36;93919.16;5051899;28;20295;-81
2021/01/28 10:31:15;;;;;;;1.92;1.73;;;7.50;80.20;;;7.05;63.40;93913.19;5051187;28;20222;-81
2021/01/28 10:33:42;;;;;;;1.88;1.73;;;7.60;80.10;;;7.08;63.44;93898.94;5050381;28;20228;-81
2021/01/28 10:36:09;;;;;;;1.70;1.52;;;7.60;80.10;;;7.09;63.04;93881.50;5047900;28;20235;-82
2021/01/28 10:38:37;;;;;;;1.83;1.70;;;7.60;80.10;;;7.19;63.54;93887.16;5052953;28;20192;-82
2021/01/28 10:41:07;;;;;;;1.63;1.52;;;7.70;80.30;;;7.24;63.65;93879.53;5052199;28;20254;-81
2021/01/28 10:43:34;;;;;;;1.50;1.40;;;7.70;80.30;;;7.30;63.66;93875.31;5018646;28;20207;-82
2021/01/28 10:46:01;;;;;;;1.40;1.30;;;7.80;80.70;;;7.32;64.53;93873.34;5065030;28;20232;-82
2021/01/28 10:48:28;;;;;;;1.70;1.50;;;7.90;80.80;;;7.41;64.49;93861.72;5036021;28;20196;-82
2021/01/28 10:50:55;;;;;;;1.90;1.60;;;7.90;80.90;;;7.41;64.67;93851.28;5052321;28;20224;-81
2021/01/28 10:53:23;;;;;;;1.92;1.73;;;8.00;80.90;;;7.50;64.69;93857.91;5033007;28;20208;-80
2021/01/28 10:55:50;;;;;;;2.10;1.73;;;8.00;80.80;;;7.53;64.48;93856.72;5031060;28;20234;-80
2021/01/28 10:58:17;;;;;;;2.03;1.70;;;8.10;80.80;;;7.54;64.60;93845.28;5049745;28;20225;-81
2021/01/28 11:00:44;;;;;;;2.13;1.95;;;8.10;80.80;;;7.60;64.55;93841.88;5031426;28;20791;-81
2021/01/28 11:03:12;;;;;;;1.92;1.70;;;8.10;80.70;;;7.63;64.53;93828.44;5032588;28;20202;-80
2021/01/28 11:05:39;;;;;;;1.50;1.40;;;8.20;80.60;;;7.69;64.48;93822.41;5050807;28;20685;-81
2021/01/28 11:08:06;;;;;;;2.17;1.50;;;8.20;80.50;;;7.77;64.18;93818.00;5065475;28;20204;-81
2021/01/28 11:10:34;;;;;;;2.88;2.08;;;8.30;80.50;;;7.83;64.31;93822.41;5065031;28;20247;-81
2021/01/28 11:13:01;;;;;;;1.58;1.42;;;8.30;80.50;;;7.88;64.19;93819.19;5033884;28;20246;-82
2021/01/28 11:15:33;;;;;;;2.25;1.65;;;8.40;80.30;;;7.93;63.93;93803.72;5034666;28;20310;-82
2021/01/28 11:18:00;;;;;;;1.73;1.45;;;8.40;80.10;;;7.94;63.62;93792.28;5052149;28;20196;-82
2021/01/28 11:20:28;;;;;;;1.70;1.60;;;8.60;80.20;;;7.99;63.44;93788.03;5035869;28;20222;-81
2021/01/28 11:22:55;;;;;;;2.30;1.65;;;8.50;80.20;;;8.03;63.21;93772.75;5052199;28;20211;-82
2021/01/28 11:25:25;;;;;;;2.10;1.65;;;8.60;80.10;;;8.19;63.12;93784.59;5068813;28;20319;-82
2021/01/28 11:27:54;;;;;;;2.20;2.00;;;8.60;79.90;;;8.21;63.53;93776.56;5051841;28;20246;-81
2021/01/28 11:30:25;;;;;;;1.85;1.60;;;8.70;80.00;;;8.27;63.01;93770.50;5017971;28;20319;-81